createdAt,value
2022-10-17T00:03:06.113Z,1029.13379
2022-10-17T00:18:08.426Z,798.34198
2022-10-17T00:33:10.765Z,486.72818
2022-10-17T00:48:13.063Z,259.5285
2022-10-17T01:03:15.367Z,78.12795
2022-10-17T01:18:17.810Z,7.18418
2022-10-17T01:33:20.196Z,0
2022-10-17T01:48:22.530Z,0
2022-10-17T02:03:24.817Z,0
2022-10-17T02:18:27.067Z,0
2022-10-17T02:33:29.479Z,0
2022-10-17T02:48:31.810Z,0
2022-10-17T03:03:34.131Z,0
2022-10-17T03:18:36.455Z,0
2022-10-17T03:33:38.769Z,0
2022-10-17T03:48:41.071Z,0
2022-10-17T04:03:43.558Z,0
2022-10-17T04:18:45.900Z,0
2022-10-17T04:33:48.177Z,0
2022-10-17T04:48:50.780Z,0
2022-10-17T05:03:53.110Z,0
2022-10-17T05:18:55.375Z,0
2022-10-17T05:33:57.670Z,0
2022-10-17T05:48:59.945Z,0
2022-10-17T06:04:02.249Z,0
2022-10-17T06:19:04.566Z,0
2022-10-17T06:34:06.857Z,0
2022-10-17T06:49:09.160Z,0
2022-10-17T07:04:11.478Z,0
2022-10-17T07:19:13.774Z,0
2022-10-17T07:34:16.125Z,0
2022-10-17T07:49:18.473Z,0
2022-10-17T08:04:20.764Z,0
2022-10-17T08:19:23.141Z,0
2022-10-17T08:34:25.418Z,0
2022-10-17T08:49:27.751Z,0
2022-10-17T09:19:32.493Z,0
2022-10-17T09:34:34.775Z,0
2022-10-17T09:49:37.012Z,0
2022-10-17T10:04:59.786Z,0
2022-10-17T10:20:05.480Z,0
2022-10-17T10:35:07.764Z,0
2022-10-17T10:50:10.058Z,0
2022-10-17T11:05:12.393Z,0
2022-10-17T11:20:14.716Z,0
2022-10-17T11:35:17.220Z,0
2022-10-17T12:05:51.866Z,0
2022-10-17T12:20:54.363Z,0
2022-10-17T12:35:56.664Z,0
2022-10-17T12:51:17.665Z,0
2022-10-17T13:06:33.564Z,0
2022-10-17T13:21:35.898Z,0
2022-10-17T13:36:38.201Z,0.89802
2022-10-17T13:51:40.526Z,23.34859
2022-10-17T14:06:44.983Z,180.50252
2022-10-17T14:21:50.443Z,437.33694
2022-10-17T14:36:52.743Z,660.04651
2022-10-17T14:51:57.002Z,664.53662
2022-10-17T15:07:09.576Z,8953.28418
2022-10-17T15:22:11.902Z,3127.81226
2022-10-17T15:37:14.153Z,17233.94922
2022-10-17T15:52:16.486Z,12835.43555
2022-10-17T16:07:18.825Z,9733.66602
2022-10-17T16:22:21.126Z,37583.13672
2022-10-17T16:37:23.642Z,29591.63672
2022-10-17T16:52:25.941Z,12226.57617
2022-10-17T17:07:28.600Z,27798.28516
2022-10-17T17:22:31.031Z,22612.20508
2022-10-17T17:37:33.501Z,5988.01367
2022-10-17T17:52:36.136Z,5782.3667
2022-10-17T18:07:38.398Z,5840.73828
2022-10-17T18:22:40.676Z,5557.86133
2022-10-17T18:37:43.029Z,5453.69043
2022-10-17T18:52:45.325Z,5422.25977
2022-10-17T19:07:47.615Z,5287.55615
2022-10-17T19:22:50.037Z,5268.69775
2022-10-17T19:37:52.422Z,5413.2793
2022-10-17T19:52:54.681Z,5148.36279
2022-10-17T20:07:57.007Z,5336.04932
2022-10-17T20:22:59.314Z,5273.18799
2022-10-17T20:38:01.619Z,5320.7832
2022-10-17T20:53:31.299Z,5520.14404
2022-10-17T21:08:37.761Z,5573.12744
2022-10-17T21:23:40.058Z,5541.69678
2022-10-17T21:38:42.331Z,5604.55811
2022-10-17T21:53:44.625Z,5621.62061
2022-10-17T22:08:47.071Z,5510.26611
2022-10-17T22:23:49.335Z,5254.32959
2022-10-17T22:38:51.653Z,4909.48877
2022-10-17T22:53:53.930Z,4598.77295
2022-10-17T23:08:56.183Z,4315.896
2022-10-17T23:23:58.520Z,1169.22522
2022-10-17T23:39:00.998Z,1062.3606
2022-10-17T23:54:03.238Z,898.92047
